sensor_id;sensor_type;location;lat;lon;timestamp;temperature;humidity
53272;DHT22;39160;48.580;7.756;2022-10-16T00:02:08;17.80;99.90
53272;DHT22;39160;48.580;7.756;2022-10-16T00:07:02;17.80;99.90
53272;DHT22;39160;48.580;7.756;2022-10-16T00:11:53;17.80;99.90
53272;DHT22;39160;48.580;7.756;2022-10-16T00:16:44;17.80;99.90
53272;DHT22;39160;48.580;7.756;2022-10-16T00:21:38;17.80;99.90
53272;DHT22;39160;48.580;7.756;2022-10-16T00:26:33;17.80;99.90
53272;DHT22;39160;48.580;7.756;2022-10-16T00:31:25;17.80;99.90
53272;DHT22;39160;48.580;7.756;2022-10-16T00:36:18;17.80;99.90
53272;DHT22;39160;48.580;7.756;2022-10-16T00:41:18;17.80;99.90
53272;DHT22;39160;48.580;7.756;2022-10-16T00:46:26;17.80;99.90
53272;DHT22;39160;48.580;7.756;2022-10-16T00:51:21;17.80;99.90
53272;DHT22;39160;48.580;7.756;2022-10-16T00:56:12;17.90;99.90
53272;DHT22;39160;48.580;7.756;2022-10-16T01:01:03;17.80;99.90
53272;DHT22;39160;48.580;7.756;2022-10-16T01:06:09;17.80;99.90
53272;DHT22;39160;48.580;7.756;2022-10-16T01:11:17;17.80;99.90
53272;DHT22;39160;48.580;7.756;2022-10-16T01:16:31;17.80;99.90
53272;DHT22;39160;48.580;7.756;2022-10-16T01:21:29;17.80;99.90
53272;DHT22;39160;48.580;7.756;2022-10-16T01:31:28;17.70;99.90
53272;DHT22;39160;48.580;7.756;2022-10-16T01:36:28;17.70;99.90
53272;DHT22;39160;48.580;7.756;2022-10-16T01:41:34;17.70;99.90
53272;DHT22;39160;48.580;7.756;2022-10-16T01:46:26;17.70;99.90
53272;DHT22;39160;48.580;7.756;2022-10-16T01:51:19;17.70;99.90
53272;DHT22;39160;48.580;7.756;2022-10-16T01:56:12;17.60;99.90
53272;DHT22;39160;48.580;7.756;2022-10-16T02:01:04;17.60;99.90
53272;DHT22;39160;48.580;7.756;2022-10-16T02:05:58;17.60;99.90
53272;DHT22;39160;48.580;7.756;2022-10-16T02:10:49;17.60;99.90
53272;DHT22;39160;48.580;7.756;2022-10-16T02:15:40;17.60;99.90
53272;DHT22;39160;48.580;7.756;2022-10-16T02:20:38;17.50;99.90
53272;DHT22;39160;48.580;7.756;2022-10-16T02:25:35;17.60;99.90
53272;DHT22;39160;48.580;7.756;2022-10-16T02:30:34;17.60;99.90
53272;DHT22;39160;48.580;7.756;2022-10-16T02:35:27;17.50;99.90
53272;DHT22;39160;48.580;7.756;2022-10-16T02:40:18;17.50;99.90
53272;DHT22;39160;48.580;7.756;2022-10-16T02:45:11;17.50;99.90
53272;DHT22;39160;48.580;7.756;2022-10-16T02:50:02;17.50;99.90
53272;DHT22;39160;48.580;7.756;2022-10-16T02:54:53;17.50;99.90
53272;DHT22;39160;48.580;7.756;2022-10-16T02:59:44;17.50;99.90
53272;DHT22;39160;48.580;7.756;2022-10-16T03:04:34;17.50;99.90
53272;DHT22;39160;48.580;7.756;2022-10-16T03:09:25;17.40;99.90
53272;DHT22;39160;48.580;7.756;2022-10-16T03:14:16;17.50;99.90
53272;DHT22;39160;48.580;7.756;2022-10-16T03:19:06;17.50;99.90
53272;DHT22;39160;48.580;7.756;2022-10-16T03:23:57;17.50;99.90
53272;DHT22;39160;48.580;7.756;2022-10-16T03:28:47;17.40;99.90
53272;DHT22;39160;48.580;7.756;2022-10-16T03:33:38;17.40;99.90
53272;DHT22;39160;48.580;7.756;2022-10-16T03:38:29;17.40;99.90
53272;DHT22;39160;48.580;7.756;2022-10-16T03:43:19;17.40;99.90
53272;DHT22;39160;48.580;7.756;2022-10-16T03:48:10;17.40;99.90
53272;DHT22;39160;48.580;7.756;2022-10-16T03:53:01;17.40;99.90
53272;DHT22;39160;48.580;7.756;2022-10-16T03:57:52;17.40;99.90
53272;DHT22;39160;48.580;7.756;2022-10-16T04:02:43;17.40;99.90
53272;DHT22;39160;48.580;7.756;2022-10-16T04:07:33;17.40;99.90
53272;DHT22;39160;48.580;7.756;2022-10-16T04:12:24;17.40;99.90
53272;DHT22;39160;48.580;7.756;2022-10-16T04:17:16;17.40;99.90
53272;DHT22;39160;48.580;7.756;2022-10-16T04:22:07;17.40;99.90
53272;DHT22;39160;48.580;7.756;2022-10-16T04:26:57;17.40;99.90
53272;DHT22;39160;48.580;7.756;2022-10-16T04:31:48;17.40;99.90
53272;DHT22;39160;48.580;7.756;2022-10-16T04:36:38;17.40;99.90
53272;DHT22;39160;48.580;7.756;2022-10-16T04:41:29;17.40;99.90
53272;DHT22;39160;48.580;7.756;2022-10-16T04:46:19;17.40;99.90
53272;DHT22;39160;48.580;7.756;2022-10-16T04:51:10;17.30;99.90
53272;DHT22;39160;48.580;7.756;2022-10-16T04:56:01;17.30;99.90
53272;DHT22;39160;48.580;7.756;2022-10-16T05:00:52;17.30;99.90
53272;DHT22;39160;48.580;7.756;2022-10-16T05:05:44;17.20;99.90
53272;DHT22;39160;48.580;7.756;2022-10-16T05:10:35;17.20;99.90
53272;DHT22;39160;48.580;7.756;2022-10-16T05:15:25;17.20;99.90
53272;DHT22;39160;48.580;7.756;2022-10-16T05:20:16;17.20;99.90
53272;DHT22;39160;48.580;7.756;2022-10-16T05:25:07;17.20;99.90
53272;DHT22;39160;48.580;7.756;2022-10-16T05:29:57;17.10;99.90
53272;DHT22;39160;48.580;7.756;2022-10-16T05:34:48;17.10;99.90
53272;DHT22;39160;48.580;7.756;2022-10-16T05:39:39;17.10;99.90
53272;DHT22;39160;48.580;7.756;2022-10-16T05:44:30;17.10;99.90
53272;DHT22;39160;48.580;7.756;2022-10-16T05:49:20;17.10;99.90
53272;DHT22;39160;48.580;7.756;2022-10-16T05:54:11;17.10;99.90
53272;DHT22;39160;48.580;7.756;2022-10-16T05:59:03;17.20;99.90
53272;DHT22;39160;48.580;7.756;2022-10-16T06:03:54;17.20;99.90
53272;DHT22;39160;48.580;7.756;2022-10-16T06:08:45;17.20;99.90
53272;DHT22;39160;48.580;7.756;2022-10-16T06:13:36;17.20;99.90
53272;DHT22;39160;48.580;7.756;2022-10-16T06:18:28;17.20;99.90
53272;DHT22;39160;48.580;7.756;2022-10-16T06:23:19;17.20;99.90
53272;DHT22;39160;48.580;7.756;2022-10-16T06:28:10;17.30;99.90
53272;DHT22;39160;48.580;7.756;2022-10-16T06:33:00;17.20;99.90
53272;DHT22;39160;48.580;7.756;2022-10-16T06:37:52;17.30;99.90
53272;DHT22;39160;48.580;7.756;2022-10-16T06:42:43;17.30;99.90
53272;DHT22;39160;48.580;7.756;2022-10-16T06:47:34;17.40;99.90
53272;DHT22;39160;48.580;7.756;2022-10-16T06:52:24;17.50;99.90
53272;DHT22;39160;48.580;7.756;2022-10-16T06:57:17;17.50;99.90
53272;DHT22;39160;48.580;7.756;2022-10-16T07:02:08;17.50;99.90
53272;DHT22;39160;48.580;7.756;2022-10-16T07:07:00;17.50;99.90
53272;DHT22;39160;48.580;7.756;2022-10-16T07:11:51;17.40;99.90
53272;DHT22;39160;48.580;7.756;2022-10-16T07:16:41;17.50;99.90
53272;DHT22;39160;48.580;7.756;2022-10-16T07:21:33;17.50;99.90
53272;DHT22;39160;48.580;7.756;2022-10-16T07:26:29;17.70;99.90
53272;DHT22;39160;48.580;7.756;2022-10-16T07:31:21;17.60;99.90
53272;DHT22;39160;48.580;7.756;2022-10-16T07:36:12;17.70;99.90
53272;DHT22;39160;48.580;7.756;2022-10-16T07:41:06;17.80;99.90
53272;DHT22;39160;48.580;7.756;2022-10-16T07:45:57;17.90;99.90
53272;DHT22;39160;48.580;7.756;2022-10-16T07:50:47;18.00;99.90
53272;DHT22;39160;48.580;7.756;2022-10-16T07:55:38;18.10;99.90
53272;DHT22;39160;48.580;7.756;2022-10-16T08:00:29;18.20;99.90
53272;DHT22;39160;48.580;7.756;2022-10-16T08:05:20;18.20;99.90
53272;DHT22;39160;48.580;7.756;2022-10-16T08:10:19;18.30;99.90
53272;DHT22;39160;48.580;7.756;2022-10-16T08:15:10;18.40;99.90
53272;DHT22;39160;48.580;7.756;2022-10-16T08:20:02;18.40;99.90
53272;DHT22;39160;48.580;7.756;2022-10-16T08:24:53;18.50;99.90
53272;DHT22;39160;48.580;7.756;2022-10-16T08:29:43;18.50;99.90
53272;DHT22;39160;48.580;7.756;2022-10-16T08:34:34;18.60;99.90
53272;DHT22;39160;48.580;7.756;2022-10-16T08:39:25;18.60;99.90
53272;DHT22;39160;48.580;7.756;2022-10-16T08:44:48;18.70;99.90
53272;DHT22;39160;48.580;7.756;2022-10-16T08:49:58;18.90;99.90
53272;DHT22;39160;48.580;7.756;2022-10-16T08:54:53;19.00;99.90
53272;DHT22;39160;48.580;7.756;2022-10-16T08:59:45;19.00;99.90
53272;DHT22;39160;48.580;7.756;2022-10-16T09:25:12;19.40;99.90
53272;DHT22;39160;48.580;7.756;2022-10-16T09:30:15;19.50;99.90
53272;DHT22;39160;48.580;7.756;2022-10-16T09:35:18;19.50;99.90
53272;DHT22;39160;48.580;7.756;2022-10-16T09:40:34;19.50;99.90
53272;DHT22;39160;48.580;7.756;2022-10-16T09:45:25;19.70;99.90
53272;DHT22;39160;48.580;7.756;2022-10-16T09:50:25;19.70;99.90
53272;DHT22;39160;48.580;7.756;2022-10-16T09:55:17;19.90;99.90
53272;DHT22;39160;48.580;7.756;2022-10-16T10:00:09;20.10;99.90
53272;DHT22;39160;48.580;7.756;2022-10-16T10:05:00;20.30;99.90
53272;DHT22;39160;48.580;7.756;2022-10-16T10:09:51;20.40;99.90
53272;DHT22;39160;48.580;7.756;2022-10-16T10:14:47;20.50;99.90
53272;DHT22;39160;48.580;7.756;2022-10-16T10:19:39;20.60;99.90
53272;DHT22;39160;48.580;7.756;2022-10-16T10:24:30;20.60;99.90
53272;DHT22;39160;48.580;7.756;2022-10-16T10:39:43;20.90;99.90
53272;DHT22;39160;48.580;7.756;2022-10-16T10:44:56;21.10;99.90
53272;DHT22;39160;48.580;7.756;2022-10-16T10:55:12;21.00;99.90
53272;DHT22;39160;48.580;7.756;2022-10-16T11:10:24;21.00;99.90
53272;DHT22;39160;48.580;7.756;2022-10-16T11:15:31;21.10;99.90
53272;DHT22;39160;48.580;7.756;2022-10-16T11:20:45;21.10;99.90
53272;DHT22;39160;48.580;7.756;2022-10-16T11:25:39;21.10;99.90
53272;DHT22;39160;48.580;7.756;2022-10-16T11:30:33;21.00;99.90
53272;DHT22;39160;48.580;7.756;2022-10-16T11:40:38;20.80;99.90
53272;DHT22;39160;48.580;7.756;2022-10-16T11:45:46;20.90;99.90
53272;DHT22;39160;48.580;7.756;2022-10-16T11:50:54;21.00;99.90
53272;DHT22;39160;48.580;7.756;2022-10-16T11:55:46;21.20;99.90
53272;DHT22;39160;48.580;7.756;2022-10-16T12:00:55;21.20;99.90
53272;DHT22;39160;48.580;7.756;2022-10-16T12:10:53;21.10;99.90
53272;DHT22;39160;48.580;7.756;2022-10-16T12:15:45;21.00;99.90
53272;DHT22;39160;48.580;7.756;2022-10-16T12:20:36;21.00;99.90
53272;DHT22;39160;48.580;7.756;2022-10-16T12:25:39;21.10;99.90
53272;DHT22;39160;48.580;7.756;2022-10-16T12:30:37;21.40;99.90
53272;DHT22;39160;48.580;7.756;2022-10-16T12:35:30;21.60;99.90
53272;DHT22;39160;48.580;7.756;2022-10-16T12:40:29;21.60;99.90
53272;DHT22;39160;48.580;7.756;2022-10-16T12:45:26;21.60;99.90
53272;DHT22;39160;48.580;7.756;2022-10-16T12:50:31;21.60;99.90
53272;DHT22;39160;48.580;7.756;2022-10-16T12:55:23;21.90;99.90
53272;DHT22;39160;48.580;7.756;2022-10-16T13:31:20;25.20;99.90
53272;DHT22;39160;48.580;7.756;2022-10-16T13:36:26;25.40;99.90
53272;DHT22;39160;48.580;7.756;2022-10-16T13:41:18;25.60;99.90
53272;DHT22;39160;48.580;7.756;2022-10-16T13:46:14;26.10;99.90
53272;DHT22;39160;48.580;7.756;2022-10-16T13:51:11;26.50;99.90
53272;DHT22;39160;48.580;7.756;2022-10-16T13:56:04;26.90;99.90
53272;DHT22;39160;48.580;7.756;2022-10-16T14:01:01;27.40;99.90
53272;DHT22;39160;48.580;7.756;2022-10-16T14:05:55;28.20;99.90
53272;DHT22;39160;48.580;7.756;2022-10-16T14:10:51;28.60;99.90
53272;DHT22;39160;48.580;7.756;2022-10-16T14:15:47;28.40;99.80
53272;DHT22;39160;48.580;7.756;2022-10-16T14:20:39;28.60;99.10
53272;DHT22;39160;48.580;7.756;2022-10-16T14:25:31;30.50;97.90
53272;DHT22;39160;48.580;7.756;2022-10-16T14:30:22;31.20;96.50
53272;DHT22;39160;48.580;7.756;2022-10-16T14:35:42;31.20;95.60
53272;DHT22;39160;48.580;7.756;2022-10-16T14:40:37;31.00;94.50
53272;DHT22;39160;48.580;7.756;2022-10-16T14:45:31;32.20;93.40
53272;DHT22;39160;48.580;7.756;2022-10-16T14:50:23;31.40;92.80
53272;DHT22;39160;48.580;7.756;2022-10-16T14:55:14;31.80;91.90
53272;DHT22;39160;48.580;7.756;2022-10-16T15:00:31;30.30;91.40
53272;DHT22;39160;48.580;7.756;2022-10-16T15:05:26;28.50;92.30
53272;DHT22;39160;48.580;7.756;2022-10-16T15:10:18;27.70;92.80
53272;DHT22;39160;48.580;7.756;2022-10-16T15:15:33;27.10;92.80
53272;DHT22;39160;48.580;7.756;2022-10-16T15:20:35;26.60;92.80
53272;DHT22;39160;48.580;7.756;2022-10-16T15:30:22;26.20;92.70
53272;DHT22;39160;48.580;7.756;2022-10-16T15:35:13;26.00;92.90
53272;DHT22;39160;48.580;7.756;2022-10-16T15:40:04;25.80;93.10
53272;DHT22;39160;48.580;7.756;2022-10-16T15:44:55;25.50;93.30
53272;DHT22;39160;48.580;7.756;2022-10-16T15:49:45;27.40;92.60
53272;DHT22;39160;48.580;7.756;2022-10-16T15:54:36;28.70;91.50
53272;DHT22;39160;48.580;7.756;2022-10-16T15:59:26;26.50;92.70
53272;DHT22;39160;48.580;7.756;2022-10-16T16:04:17;24.80;94.50
53272;DHT22;39160;48.580;7.756;2022-10-16T16:09:08;24.00;95.40
53272;DHT22;39160;48.580;7.756;2022-10-16T16:13:59;23.50;96.00
53272;DHT22;39160;48.580;7.756;2022-10-16T16:18:52;23.10;96.60
53272;DHT22;39160;48.580;7.756;2022-10-16T16:23:43;22.70;97.10
53272;DHT22;39160;48.580;7.756;2022-10-16T16:28:34;22.50;97.60
53272;DHT22;39160;48.580;7.756;2022-10-16T16:33:25;22.20;98.10
53272;DHT22;39160;48.580;7.756;2022-10-16T16:38:15;22.00;98.50
53272;DHT22;39160;48.580;7.756;2022-10-16T16:43:06;21.80;99.10
53272;DHT22;39160;48.580;7.756;2022-10-16T16:47:57;21.70;99.40
53272;DHT22;39160;48.580;7.756;2022-10-16T16:52:48;21.60;99.70
53272;DHT22;39160;48.580;7.756;2022-10-16T16:57:38;21.60;99.90
53272;DHT22;39160;48.580;7.756;2022-10-16T17:02:29;21.50;99.90
53272;DHT22;39160;48.580;7.756;2022-10-16T17:07:20;21.30;99.90
53272;DHT22;39160;48.580;7.756;2022-10-16T17:12:10;21.20;99.90
53272;DHT22;39160;48.580;7.756;2022-10-16T17:17:01;21.10;99.90
53272;DHT22;39160;48.580;7.756;2022-10-16T17:21:52;21.00;99.90
53272;DHT22;39160;48.580;7.756;2022-10-16T17:26:43;20.90;99.90
53272;DHT22;39160;48.580;7.756;2022-10-16T17:31:38;20.90;99.90
53272;DHT22;39160;48.580;7.756;2022-10-16T17:36:31;20.90;99.90
53272;DHT22;39160;48.580;7.756;2022-10-16T17:41:23;20.80;99.90
53272;DHT22;39160;48.580;7.756;2022-10-16T17:46:15;20.70;99.90
53272;DHT22;39160;48.580;7.756;2022-10-16T17:51:07;20.70;99.90
53272;DHT22;39160;48.580;7.756;2022-10-16T17:56:02;20.50;99.90
53272;DHT22;39160;48.580;7.756;2022-10-16T18:00:53;20.50;99.90
53272;DHT22;39160;48.580;7.756;2022-10-16T18:05:44;20.60;99.90
53272;DHT22;39160;48.580;7.756;2022-10-16T18:10:34;20.50;99.90
53272;DHT22;39160;48.580;7.756;2022-10-16T18:15:25;20.40;99.90
53272;DHT22;39160;48.580;7.756;2022-10-16T18:20:15;20.50;99.90
53272;DHT22;39160;48.580;7.756;2022-10-16T18:25:06;20.40;99.90
53272;DHT22;39160;48.580;7.756;2022-10-16T18:29:57;20.30;99.90
53272;DHT22;39160;48.580;7.756;2022-10-16T18:34:49;20.30;99.90
53272;DHT22;39160;48.580;7.756;2022-10-16T18:39:40;20.20;99.90
53272;DHT22;39160;48.580;7.756;2022-10-16T18:44:31;20.20;99.90
53272;DHT22;39160;48.580;7.756;2022-10-16T18:49:22;20.10;99.90
53272;DHT22;39160;48.580;7.756;2022-10-16T18:54:13;20.10;99.90
53272;DHT22;39160;48.580;7.756;2022-10-16T18:59:06;20.10;99.90
53272;DHT22;39160;48.580;7.756;2022-10-16T19:04:02;20.00;99.90
53272;DHT22;39160;48.580;7.756;2022-10-16T19:08:54;19.90;99.90
53272;DHT22;39160;48.580;7.756;2022-10-16T19:13:46;19.80;99.90
53272;DHT22;39160;48.580;7.756;2022-10-16T19:18:37;19.80;99.90
53272;DHT22;39160;48.580;7.756;2022-10-16T19:23:28;19.70;99.90
53272;DHT22;39160;48.580;7.756;2022-10-16T19:28:19;19.60;99.90
53272;DHT22;39160;48.580;7.756;2022-10-16T19:33:10;19.60;99.90
53272;DHT22;39160;48.580;7.756;2022-10-16T19:38:00;19.50;99.90
53272;DHT22;39160;48.580;7.756;2022-10-16T19:42:51;19.50;99.90
53272;DHT22;39160;48.580;7.756;2022-10-16T19:47:42;19.50;99.90
53272;DHT22;39160;48.580;7.756;2022-10-16T19:52:36;19.40;99.90
53272;DHT22;39160;48.580;7.756;2022-10-16T19:57:27;19.40;99.90
53272;DHT22;39160;48.580;7.756;2022-10-16T20:02:18;19.30;99.90
53272;DHT22;39160;48.580;7.756;2022-10-16T20:07:08;19.30;99.90
53272;DHT22;39160;48.580;7.756;2022-10-16T20:11:59;19.30;99.90
53272;DHT22;39160;48.580;7.756;2022-10-16T20:16:50;19.20;99.90
53272;DHT22;39160;48.580;7.756;2022-10-16T20:21:42;19.20;99.90
53272;DHT22;39160;48.580;7.756;2022-10-16T20:26:33;19.20;99.90
53272;DHT22;39160;48.580;7.756;2022-10-16T20:31:26;19.10;99.90
53272;DHT22;39160;48.580;7.756;2022-10-16T20:36:18;19.10;99.90
53272;DHT22;39160;48.580;7.756;2022-10-16T20:41:10;19.00;99.90
53272;DHT22;39160;48.580;7.756;2022-10-16T20:46:04;19.00;99.90
53272;DHT22;39160;48.580;7.756;2022-10-16T20:50:55;18.90;99.90
53272;DHT22;39160;48.580;7.756;2022-10-16T20:55:45;18.80;99.90
53272;DHT22;39160;48.580;7.756;2022-10-16T21:00:36;18.80;99.90
53272;DHT22;39160;48.580;7.756;2022-10-16T21:05:27;18.70;99.90
53272;DHT22;39160;48.580;7.756;2022-10-16T21:10:19;18.70;99.90
53272;DHT22;39160;48.580;7.756;2022-10-16T21:15:10;18.60;99.90
53272;DHT22;39160;48.580;7.756;2022-10-16T21:20:02;18.60;99.90
53272;DHT22;39160;48.580;7.756;2022-10-16T21:24:53;18.60;99.90
53272;DHT22;39160;48.580;7.756;2022-10-16T21:29:43;18.50;99.90
53272;DHT22;39160;48.580;7.756;2022-10-16T21:34:34;18.60;99.90
53272;DHT22;39160;48.580;7.756;2022-10-16T21:39:25;18.50;99.90
53272;DHT22;39160;48.580;7.756;2022-10-16T21:44:16;18.50;99.90
53272;DHT22;39160;48.580;7.756;2022-10-16T21:49:12;18.50;99.90
53272;DHT22;39160;48.580;7.756;2022-10-16T21:54:05;18.40;99.90
53272;DHT22;39160;48.580;7.756;2022-10-16T21:58:56;18.40;99.90
53272;DHT22;39160;48.580;7.756;2022-10-16T22:03:47;18.40;99.90
53272;DHT22;39160;48.580;7.756;2022-10-16T22:08:39;18.30;99.90
53272;DHT22;39160;48.580;7.756;2022-10-16T22:13:29;18.30;99.90
53272;DHT22;39160;48.580;7.756;2022-10-16T22:18:20;18.30;99.90
53272;DHT22;39160;48.580;7.756;2022-10-16T22:23:12;18.30;99.90
53272;DHT22;39160;48.580;7.756;2022-10-16T22:28:02;18.30;99.90
53272;DHT22;39160;48.580;7.756;2022-10-16T22:32:53;18.30;99.90
53272;DHT22;39160;48.580;7.756;2022-10-16T22:37:44;18.30;99.90
53272;DHT22;39160;48.580;7.756;2022-10-16T22:42:34;18.30;99.90
53272;DHT22;39160;48.580;7.756;2022-10-16T22:47:25;18.20;99.90
53272;DHT22;39160;48.580;7.756;2022-10-16T22:52:15;18.10;99.90
53272;DHT22;39160;48.580;7.756;2022-10-16T22:57:06;18.20;99.90
53272;DHT22;39160;48.580;7.756;2022-10-16T23:01:57;18.10;99.90
53272;DHT22;39160;48.580;7.756;2022-10-16T23:06:47;18.00;99.90
53272;DHT22;39160;48.580;7.756;2022-10-16T23:11:38;18.00;99.90
53272;DHT22;39160;48.580;7.756;2022-10-16T23:16:29;17.90;99.90
53272;DHT22;39160;48.580;7.756;2022-10-16T23:21:23;17.90;99.90
53272;DHT22;39160;48.580;7.756;2022-10-16T23:26:23;17.90;99.90
53272;DHT22;39160;48.580;7.756;2022-10-16T23:31:15;17.80;99.90
53272;DHT22;39160;48.580;7.756;2022-10-16T23:36:10;17.80;99.90
53272;DHT22;39160;48.580;7.756;2022-10-16T23:41:02;17.70;99.90
53272;DHT22;39160;48.580;7.756;2022-10-16T23:45:53;17.70;99.90
53272;DHT22;39160;48.580;7.756;2022-10-16T23:50:43;17.60;99.90
53272;DHT22;39160;48.580;7.756;2022-10-16T23:55:34;17.50;99.90
